sensor_id;sensor_type;location;lat;lon;timestamp;temperature;humidity
14670;DHT22;7423;48.722;9.350;2023-07-16T00:02:15;24.70;99.90
14670;DHT22;7423;48.722;9.350;2023-07-16T00:04:42;24.60;99.90
14670;DHT22;7423;48.722;9.350;2023-07-16T00:07:09;24.60;99.90
14670;DHT22;7423;48.722;9.350;2023-07-16T00:09:36;24.60;99.90
14670;DHT22;7423;48.722;9.350;2023-07-16T00:12:04;24.60;99.90
14670;DHT22;7423;48.722;9.350;2023-07-16T00:14:31;24.60;99.90
14670;DHT22;7423;48.722;9.350;2023-07-16T00:16:58;24.50;99.90
14670;DHT22;7423;48.722;9.350;2023-07-16T00:19:25;24.40;99.90
14670;DHT22;7423;48.722;9.350;2023-07-16T00:21:52;24.40;99.90
14670;DHT22;7423;48.722;9.350;2023-07-16T00:24:19;24.40;99.90
14670;DHT22;7423;48.722;9.350;2023-07-16T00:26:45;24.40;99.90
14670;DHT22;7423;48.722;9.350;2023-07-16T00:29:12;24.40;99.90
14670;DHT22;7423;48.722;9.350;2023-07-16T00:31:39;24.40;99.90
14670;DHT22;7423;48.722;9.350;2023-07-16T00:34:06;24.40;99.90
14670;DHT22;7423;48.722;9.350;2023-07-16T00:36:33;24.40;99.90
14670;DHT22;7423;48.722;9.350;2023-07-16T00:39:00;24.40;99.90
14670;DHT22;7423;48.722;9.350;2023-07-16T00:41:27;24.40;99.90
14670;DHT22;7423;48.722;9.350;2023-07-16T00:43:54;24.40;99.90
14670;DHT22;7423;48.722;9.350;2023-07-16T00:46:21;24.30;99.90
14670;DHT22;7423;48.722;9.350;2023-07-16T00:48:48;24.30;99.90
14670;DHT22;7423;48.722;9.350;2023-07-16T00:51:16;24.30;99.90
14670;DHT22;7423;48.722;9.350;2023-07-16T00:53:43;24.30;99.90
14670;DHT22;7423;48.722;9.350;2023-07-16T00:56:11;24.30;99.90
14670;DHT22;7423;48.722;9.350;2023-07-16T00:58:43;24.30;99.90
14670;DHT22;7423;48.722;9.350;2023-07-16T01:01:10;24.30;99.90
14670;DHT22;7423;48.722;9.350;2023-07-16T01:03:37;24.30;99.90
14670;DHT22;7423;48.722;9.350;2023-07-16T01:06:11;24.40;99.90
14670;DHT22;7423;48.722;9.350;2023-07-16T01:09:08;24.40;99.90
14670;DHT22;7423;48.722;9.350;2023-07-16T01:11:40;24.40;99.90
14670;DHT22;7423;48.722;9.350;2023-07-16T01:14:08;24.40;99.90
14670;DHT22;7423;48.722;9.350;2023-07-16T01:16:35;24.50;99.90
14670;DHT22;7423;48.722;9.350;2023-07-16T01:19:03;24.30;99.90
14670;DHT22;7423;48.722;9.350;2023-07-16T01:24:37;24.40;99.90
14670;DHT22;7423;48.722;9.350;2023-07-16T01:27:27;24.40;99.90
14670;DHT22;7423;48.722;9.350;2023-07-16T01:30:02;24.30;99.90
14670;DHT22;7423;48.722;9.350;2023-07-16T01:32:31;24.30;99.90
14670;DHT22;7423;48.722;9.350;2023-07-16T01:34:58;24.30;99.90
14670;DHT22;7423;48.722;9.350;2023-07-16T01:37:26;24.30;99.90
14670;DHT22;7423;48.722;9.350;2023-07-16T01:39:53;24.30;99.90
14670;DHT22;7423;48.722;9.350;2023-07-16T01:42:20;24.30;99.90
14670;DHT22;7423;48.722;9.350;2023-07-16T01:44:47;24.30;99.90
14670;DHT22;7423;48.722;9.350;2023-07-16T01:49:55;24.30;99.90
14670;DHT22;7423;48.722;9.350;2023-07-16T01:52:23;24.30;99.90
14670;DHT22;7423;48.722;9.350;2023-07-16T01:54:50;24.30;99.90
14670;DHT22;7423;48.722;9.350;2023-07-16T01:57:17;24.30;99.90
14670;DHT22;7423;48.722;9.350;2023-07-16T01:59:44;24.30;99.90
14670;DHT22;7423;48.722;9.350;2023-07-16T02:02:12;24.30;99.90
14670;DHT22;7423;48.722;9.350;2023-07-16T02:04:39;24.40;99.90
14670;DHT22;7423;48.722;9.350;2023-07-16T02:07:06;24.40;99.90
14670;DHT22;7423;48.722;9.350;2023-07-16T02:09:34;24.30;99.90
14670;DHT22;7423;48.722;9.350;2023-07-16T02:12:01;24.30;99.90
14670;DHT22;7423;48.722;9.350;2023-07-16T02:14:28;24.30;99.90
14670;DHT22;7423;48.722;9.350;2023-07-16T02:16:55;24.30;99.90
14670;DHT22;7423;48.722;9.350;2023-07-16T02:19:22;24.30;99.90
14670;DHT22;7423;48.722;9.350;2023-07-16T02:21:49;24.20;99.90
14670;DHT22;7423;48.722;9.350;2023-07-16T02:24:16;24.20;99.90
14670;DHT22;7423;48.722;9.350;2023-07-16T02:26:43;24.20;99.90
14670;DHT22;7423;48.722;9.350;2023-07-16T02:29:10;24.10;99.90
14670;DHT22;7423;48.722;9.350;2023-07-16T02:31:37;24.20;99.90
14670;DHT22;7423;48.722;9.350;2023-07-16T02:34:04;24.10;99.90
14670;DHT22;7423;48.722;9.350;2023-07-16T02:36:31;24.10;99.90
14670;DHT22;7423;48.722;9.350;2023-07-16T02:38:58;24.10;99.90
14670;DHT22;7423;48.722;9.350;2023-07-16T02:41:25;24.00;99.90
14670;DHT22;7423;48.722;9.350;2023-07-16T02:43:59;24.00;99.90
14670;DHT22;7423;48.722;9.350;2023-07-16T02:46:27;24.00;99.90
14670;DHT22;7423;48.722;9.350;2023-07-16T02:48:54;23.90;99.90
14670;DHT22;7423;48.722;9.350;2023-07-16T02:51:21;23.90;99.90
14670;DHT22;7423;48.722;9.350;2023-07-16T02:53:48;23.90;99.90
14670;DHT22;7423;48.722;9.350;2023-07-16T02:56:15;23.80;99.90
14670;DHT22;7423;48.722;9.350;2023-07-16T02:58:43;23.80;99.90
14670;DHT22;7423;48.722;9.350;2023-07-16T03:01:10;23.70;99.90
14670;DHT22;7423;48.722;9.350;2023-07-16T03:03:37;23.70;99.90
14670;DHT22;7423;48.722;9.350;2023-07-16T03:06:04;23.70;99.90
14670;DHT22;7423;48.722;9.350;2023-07-16T03:08:31;23.60;99.90
14670;DHT22;7423;48.722;9.350;2023-07-16T03:10:58;23.50;99.90
14670;DHT22;7423;48.722;9.350;2023-07-16T03:13:25;23.50;99.90
14670;DHT22;7423;48.722;9.350;2023-07-16T03:15:52;23.40;99.90
14670;DHT22;7423;48.722;9.350;2023-07-16T03:18:19;23.40;99.90
14670;DHT22;7423;48.722;9.350;2023-07-16T03:20:46;23.40;99.90
14670;DHT22;7423;48.722;9.350;2023-07-16T03:23:13;23.30;99.90
14670;DHT22;7423;48.722;9.350;2023-07-16T03:25:40;23.20;99.90
14670;DHT22;7423;48.722;9.350;2023-07-16T03:28:07;23.20;99.90
14670;DHT22;7423;48.722;9.350;2023-07-16T03:30:34;23.10;99.90
14670;DHT22;7423;48.722;9.350;2023-07-16T03:33:01;23.10;99.90
14670;DHT22;7423;48.722;9.350;2023-07-16T03:35:28;23.00;99.90
14670;DHT22;7423;48.722;9.350;2023-07-16T03:37:54;23.00;99.90
14670;DHT22;7423;48.722;9.350;2023-07-16T03:40:25;23.00;99.90
14670;DHT22;7423;48.722;9.350;2023-07-16T03:42:53;23.00;99.90
14670;DHT22;7423;48.722;9.350;2023-07-16T03:45:20;23.00;99.90
14670;DHT22;7423;48.722;9.350;2023-07-16T03:47:47;23.00;99.90
14670;DHT22;7423;48.722;9.350;2023-07-16T03:50:14;23.10;99.90
14670;DHT22;7423;48.722;9.350;2023-07-16T03:52:41;23.20;99.90
14670;DHT22;7423;48.722;9.350;2023-07-16T03:55:08;23.10;99.90
14670;DHT22;7423;48.722;9.350;2023-07-16T03:57:35;23.10;99.90
14670;DHT22;7423;48.722;9.350;2023-07-16T04:00:03;23.00;99.90
14670;DHT22;7423;48.722;9.350;2023-07-16T04:02:33;23.00;99.90
14670;DHT22;7423;48.722;9.350;2023-07-16T04:05:00;23.00;99.90
14670;DHT22;7423;48.722;9.350;2023-07-16T04:07:27;23.00;99.90
14670;DHT22;7423;48.722;9.350;2023-07-16T04:09:54;22.90;99.90
14670;DHT22;7423;48.722;9.350;2023-07-16T04:12:21;22.80;99.90
14670;DHT22;7423;48.722;9.350;2023-07-16T04:14:47;22.80;99.90
14670;DHT22;7423;48.722;9.350;2023-07-16T04:17:14;22.80;99.90
14670;DHT22;7423;48.722;9.350;2023-07-16T04:19:41;22.80;99.90
14670;DHT22;7423;48.722;9.350;2023-07-16T04:22:08;22.80;99.90
14670;DHT22;7423;48.722;9.350;2023-07-16T04:24:35;22.80;99.90
14670;DHT22;7423;48.722;9.350;2023-07-16T04:27:02;22.80;99.90
14670;DHT22;7423;48.722;9.350;2023-07-16T04:29:29;22.80;99.90
14670;DHT22;7423;48.722;9.350;2023-07-16T04:31:56;22.80;99.90
14670;DHT22;7423;48.722;9.350;2023-07-16T04:34:23;22.90;99.90
14670;DHT22;7423;48.722;9.350;2023-07-16T04:36:50;22.80;99.90
14670;DHT22;7423;48.722;9.350;2023-07-16T04:39:16;22.70;99.90
14670;DHT22;7423;48.722;9.350;2023-07-16T04:41:43;22.70;99.90
14670;DHT22;7423;48.722;9.350;2023-07-16T04:44:10;22.70;99.90
14670;DHT22;7423;48.722;9.350;2023-07-16T04:46:37;22.70;99.90
14670;DHT22;7423;48.722;9.350;2023-07-16T04:49:05;22.70;99.90
14670;DHT22;7423;48.722;9.350;2023-07-16T04:51:32;22.60;99.90
14670;DHT22;7423;48.722;9.350;2023-07-16T04:53:59;22.70;99.90
14670;DHT22;7423;48.722;9.350;2023-07-16T04:56:26;22.80;99.90
14670;DHT22;7423;48.722;9.350;2023-07-16T04:58:53;23.00;99.90
14670;DHT22;7423;48.722;9.350;2023-07-16T05:01:20;22.90;99.90
14670;DHT22;7423;48.722;9.350;2023-07-16T05:03:47;22.70;99.90
14670;DHT22;7423;48.722;9.350;2023-07-16T05:06:14;22.70;99.90
14670;DHT22;7423;48.722;9.350;2023-07-16T05:08:41;22.60;99.90
14670;DHT22;7423;48.722;9.350;2023-07-16T05:11:08;22.60;99.90
14670;DHT22;7423;48.722;9.350;2023-07-16T05:13:35;22.60;99.90
14670;DHT22;7423;48.722;9.350;2023-07-16T05:16:02;22.60;99.90
14670;DHT22;7423;48.722;9.350;2023-07-16T05:18:29;22.60;99.90
14670;DHT22;7423;48.722;9.350;2023-07-16T05:20:56;22.70;99.90
14670;DHT22;7423;48.722;9.350;2023-07-16T05:23:23;22.70;99.90
14670;DHT22;7423;48.722;9.350;2023-07-16T05:25:50;22.70;99.90
14670;DHT22;7423;48.722;9.350;2023-07-16T05:28:18;22.70;99.90
14670;DHT22;7423;48.722;9.350;2023-07-16T05:30:45;22.70;99.90
14670;DHT22;7423;48.722;9.350;2023-07-16T05:33:12;22.80;99.90
14670;DHT22;7423;48.722;9.350;2023-07-16T05:35:39;22.70;99.90
14670;DHT22;7423;48.722;9.350;2023-07-16T05:38:06;22.70;99.90
14670;DHT22;7423;48.722;9.350;2023-07-16T05:40:33;22.80;99.90
14670;DHT22;7423;48.722;9.350;2023-07-16T05:43:00;22.70;99.90
14670;DHT22;7423;48.722;9.350;2023-07-16T05:45:27;22.70;99.90
14670;DHT22;7423;48.722;9.350;2023-07-16T05:47:54;22.70;99.90
14670;DHT22;7423;48.722;9.350;2023-07-16T05:50:21;22.70;99.90
14670;DHT22;7423;48.722;9.350;2023-07-16T05:52:48;22.80;99.90
14670;DHT22;7423;48.722;9.350;2023-07-16T05:55:15;22.70;99.90
14670;DHT22;7423;48.722;9.350;2023-07-16T05:57:43;22.80;99.90
14670;DHT22;7423;48.722;9.350;2023-07-16T06:00:10;22.80;99.90
14670;DHT22;7423;48.722;9.350;2023-07-16T06:02:37;22.80;99.90
14670;DHT22;7423;48.722;9.350;2023-07-16T06:05:05;22.70;99.90
14670;DHT22;7423;48.722;9.350;2023-07-16T06:07:32;22.80;99.90
14670;DHT22;7423;48.722;9.350;2023-07-16T06:09:59;22.90;99.90
14670;DHT22;7423;48.722;9.350;2023-07-16T06:12:26;22.80;99.90
14670;DHT22;7423;48.722;9.350;2023-07-16T06:14:53;22.80;99.90
14670;DHT22;7423;48.722;9.350;2023-07-16T06:17:20;22.90;99.90
14670;DHT22;7423;48.722;9.350;2023-07-16T06:19:47;22.80;99.90
14670;DHT22;7423;48.722;9.350;2023-07-16T06:22:16;22.90;99.90
14670;DHT22;7423;48.722;9.350;2023-07-16T06:24:43;22.90;99.90
14670;DHT22;7423;48.722;9.350;2023-07-16T06:27:10;22.90;99.90
14670;DHT22;7423;48.722;9.350;2023-07-16T06:29:37;23.00;99.90
14670;DHT22;7423;48.722;9.350;2023-07-16T06:32:04;22.90;99.90
14670;DHT22;7423;48.722;9.350;2023-07-16T06:34:32;22.90;99.90
14670;DHT22;7423;48.722;9.350;2023-07-16T06:36:59;22.80;99.90
14670;DHT22;7423;48.722;9.350;2023-07-16T06:39:25;22.90;99.90
14670;DHT22;7423;48.722;9.350;2023-07-16T06:41:52;22.80;99.90
14670;DHT22;7423;48.722;9.350;2023-07-16T06:44:19;22.90;99.90
14670;DHT22;7423;48.722;9.350;2023-07-16T06:46:46;22.90;99.90
14670;DHT22;7423;48.722;9.350;2023-07-16T06:49:13;22.80;99.90
14670;DHT22;7423;48.722;9.350;2023-07-16T06:51:40;22.90;99.90
14670;DHT22;7423;48.722;9.350;2023-07-16T06:54:07;23.00;99.90
14670;DHT22;7423;48.722;9.350;2023-07-16T06:56:34;22.90;99.90
14670;DHT22;7423;48.722;9.350;2023-07-16T06:59:01;22.90;99.90
14670;DHT22;7423;48.722;9.350;2023-07-16T07:01:28;22.90;99.90
14670;DHT22;7423;48.722;9.350;2023-07-16T07:03:55;23.00;99.90
14670;DHT22;7423;48.722;9.350;2023-07-16T07:06:22;23.00;99.90
14670;DHT22;7423;48.722;9.350;2023-07-16T07:08:51;23.00;99.90
14670;DHT22;7423;48.722;9.350;2023-07-16T07:11:18;23.00;99.90
14670;DHT22;7423;48.722;9.350;2023-07-16T07:13:45;23.10;99.90
14670;DHT22;7423;48.722;9.350;2023-07-16T07:16:12;23.10;99.90
14670;DHT22;7423;48.722;9.350;2023-07-16T07:18:40;23.10;99.90
14670;DHT22;7423;48.722;9.350;2023-07-16T07:21:07;23.20;99.90
14670;DHT22;7423;48.722;9.350;2023-07-16T07:23:34;23.20;99.90
14670;DHT22;7423;48.722;9.350;2023-07-16T07:26:00;23.10;99.90
14670;DHT22;7423;48.722;9.350;2023-07-16T07:28:27;23.00;99.90
14670;DHT22;7423;48.722;9.350;2023-07-16T07:30:55;23.00;99.90
14670;DHT22;7423;48.722;9.350;2023-07-16T07:33:22;23.00;99.90
14670;DHT22;7423;48.722;9.350;2023-07-16T07:35:48;23.00;99.90
14670;DHT22;7423;48.722;9.350;2023-07-16T07:38:15;23.00;99.90
14670;DHT22;7423;48.722;9.350;2023-07-16T07:40:43;23.00;99.90
14670;DHT22;7423;48.722;9.350;2023-07-16T07:43:10;23.00;99.90
14670;DHT22;7423;48.722;9.350;2023-07-16T07:45:37;22.90;99.90
14670;DHT22;7423;48.722;9.350;2023-07-16T07:48:04;23.10;99.90
14670;DHT22;7423;48.722;9.350;2023-07-16T07:50:31;23.10;99.90
14670;DHT22;7423;48.722;9.350;2023-07-16T07:52:58;23.10;99.90
14670;DHT22;7423;48.722;9.350;2023-07-16T07:55:25;23.10;99.90
14670;DHT22;7423;48.722;9.350;2023-07-16T07:57:52;23.10;99.90
14670;DHT22;7423;48.722;9.350;2023-07-16T08:00:20;23.10;99.90
14670;DHT22;7423;48.722;9.350;2023-07-16T08:02:47;23.20;99.90
14670;DHT22;7423;48.722;9.350;2023-07-16T08:05:14;23.30;99.90
14670;DHT22;7423;48.722;9.350;2023-07-16T08:07:41;23.20;99.90
14670;DHT22;7423;48.722;9.350;2023-07-16T08:10:08;23.10;99.90
14670;DHT22;7423;48.722;9.350;2023-07-16T08:12:35;23.10;99.90
14670;DHT22;7423;48.722;9.350;2023-07-16T08:15:02;23.20;99.90
14670;DHT22;7423;48.722;9.350;2023-07-16T08:17:30;23.10;99.90
14670;DHT22;7423;48.722;9.350;2023-07-16T08:19:58;23.10;99.90
14670;DHT22;7423;48.722;9.350;2023-07-16T08:22:24;23.10;99.90
14670;DHT22;7423;48.722;9.350;2023-07-16T08:24:51;23.10;99.90
14670;DHT22;7423;48.722;9.350;2023-07-16T08:27:18;23.20;99.90
14670;DHT22;7423;48.722;9.350;2023-07-16T08:29:46;23.20;99.90
14670;DHT22;7423;48.722;9.350;2023-07-16T08:32:13;23.20;99.90
14670;DHT22;7423;48.722;9.350;2023-07-16T08:34:39;23.10;99.90
14670;DHT22;7423;48.722;9.350;2023-07-16T08:37:06;23.00;99.90
14670;DHT22;7423;48.722;9.350;2023-07-16T08:39:34;23.10;99.90
14670;DHT22;7423;48.722;9.350;2023-07-16T08:42:01;23.20;99.90
14670;DHT22;7423;48.722;9.350;2023-07-16T08:44:29;23.40;99.90
14670;DHT22;7423;48.722;9.350;2023-07-16T08:46:56;23.50;99.90
14670;DHT22;7423;48.722;9.350;2023-07-16T08:49:25;23.50;99.90
14670;DHT22;7423;48.722;9.350;2023-07-16T08:51:54;23.50;99.90
14670;DHT22;7423;48.722;9.350;2023-07-16T08:54:22;23.60;99.90
14670;DHT22;7423;48.722;9.350;2023-07-16T08:56:50;23.60;99.90
14670;DHT22;7423;48.722;9.350;2023-07-16T08:59:18;23.70;99.90
14670;DHT22;7423;48.722;9.350;2023-07-16T09:01:47;23.80;99.90
14670;DHT22;7423;48.722;9.350;2023-07-16T09:04:15;23.80;99.90
14670;DHT22;7423;48.722;9.350;2023-07-16T09:06:43;23.80;99.90
14670;DHT22;7423;48.722;9.350;2023-07-16T09:09:23;23.80;99.90
14670;DHT22;7423;48.722;9.350;2023-07-16T09:11:50;23.80;99.90
14670;DHT22;7423;48.722;9.350;2023-07-16T09:14:18;23.90;99.90
14670;DHT22;7423;48.722;9.350;2023-07-16T09:16:52;23.90;99.90
14670;DHT22;7423;48.722;9.350;2023-07-16T09:19:19;23.90;99.90
14670;DHT22;7423;48.722;9.350;2023-07-16T09:21:50;23.90;99.90
14670;DHT22;7423;48.722;9.350;2023-07-16T09:24:19;24.00;99.90
14670;DHT22;7423;48.722;9.350;2023-07-16T09:26:48;24.00;99.90
14670;DHT22;7423;48.722;9.350;2023-07-16T09:29:19;24.00;99.90
14670;DHT22;7423;48.722;9.350;2023-07-16T09:32:01;24.00;99.90
14670;DHT22;7423;48.722;9.350;2023-07-16T09:34:29;24.00;99.90
14670;DHT22;7423;48.722;9.350;2023-07-16T09:37:00;24.00;99.90
14670;DHT22;7423;48.722;9.350;2023-07-16T09:39:28;24.10;99.90
14670;DHT22;7423;48.722;9.350;2023-07-16T09:41:55;24.10;99.90
14670;DHT22;7423;48.722;9.350;2023-07-16T09:44:24;24.10;99.90
14670;DHT22;7423;48.722;9.350;2023-07-16T09:46:51;24.20;99.90
14670;DHT22;7423;48.722;9.350;2023-07-16T09:49:18;24.30;99.90
14670;DHT22;7423;48.722;9.350;2023-07-16T09:51:45;24.30;99.90
14670;DHT22;7423;48.722;9.350;2023-07-16T09:54:15;24.30;99.90
14670;DHT22;7423;48.722;9.350;2023-07-16T09:56:46;24.20;99.90
14670;DHT22;7423;48.722;9.350;2023-07-16T09:59:16;24.30;99.90
14670;DHT22;7423;48.722;9.350;2023-07-16T10:01:44;24.40;99.90
14670;DHT22;7423;48.722;9.350;2023-07-16T10:04:16;24.40;99.90
14670;DHT22;7423;48.722;9.350;2023-07-16T10:09:35;24.40;99.90
14670;DHT22;7423;48.722;9.350;2023-07-16T10:12:18;24.50;99.90
14670;DHT22;7423;48.722;9.350;2023-07-16T10:14:53;24.60;99.90
14670;DHT22;7423;48.722;9.350;2023-07-16T10:17:24;24.40;99.90
14670;DHT22;7423;48.722;9.350;2023-07-16T10:22:41;24.50;99.90
14670;DHT22;7423;48.722;9.350;2023-07-16T10:27:50;24.70;99.90
14670;DHT22;7423;48.722;9.350;2023-07-16T10:30:18;24.70;99.90
14670;DHT22;7423;48.722;9.350;2023-07-16T10:32:46;24.80;99.90
14670;DHT22;7423;48.722;9.350;2023-07-16T10:35:13;24.80;99.90
14670;DHT22;7423;48.722;9.350;2023-07-16T10:37:40;24.80;99.90
14670;DHT22;7423;48.722;9.350;2023-07-16T10:40:12;24.90;99.90
14670;DHT22;7423;48.722;9.350;2023-07-16T10:42:43;25.00;99.90
14670;DHT22;7423;48.722;9.350;2023-07-16T10:45:12;25.00;99.40
14670;DHT22;7423;48.722;9.350;2023-07-16T10:47:53;24.90;99.90
14670;DHT22;7423;48.722;9.350;2023-07-16T10:50:21;25.00;99.90
14670;DHT22;7423;48.722;9.350;2023-07-16T10:52:53;25.00;99.10
14670;DHT22;7423;48.722;9.350;2023-07-16T10:55:21;25.10;99.10
14670;DHT22;7423;48.722;9.350;2023-07-16T10:57:49;25.10;99.60
14670;DHT22;7423;48.722;9.350;2023-07-16T11:00:17;25.20;99.30
14670;DHT22;7423;48.722;9.350;2023-07-16T11:02:44;25.30;99.60
14670;DHT22;7423;48.722;9.350;2023-07-16T11:05:14;25.40;99.50
14670;DHT22;7423;48.722;9.350;2023-07-16T11:07:45;25.40;99.20
14670;DHT22;7423;48.722;9.350;2023-07-16T11:10:20;25.40;99.60
14670;DHT22;7423;48.722;9.350;2023-07-16T11:12:51;25.50;99.00
14670;DHT22;7423;48.722;9.350;2023-07-16T11:15:32;25.60;97.30
14670;DHT22;7423;48.722;9.350;2023-07-16T11:18:01;25.70;97.50
14670;DHT22;7423;48.722;9.350;2023-07-16T11:20:30;25.70;97.10
14670;DHT22;7423;48.722;9.350;2023-07-16T11:23:00;25.70;97.20
14670;DHT22;7423;48.722;9.350;2023-07-16T11:25:28;25.70;97.80
14670;DHT22;7423;48.722;9.350;2023-07-16T11:27:55;25.70;98.00
14670;DHT22;7423;48.722;9.350;2023-07-16T11:30:27;25.70;98.50
14670;DHT22;7423;48.722;9.350;2023-07-16T11:32:58;25.70;97.70
14670;DHT22;7423;48.722;9.350;2023-07-16T11:35:25;25.90;97.40
14670;DHT22;7423;48.722;9.350;2023-07-16T11:37:54;25.90;96.80
14670;DHT22;7423;48.722;9.350;2023-07-16T11:40:21;26.00;97.20
14670;DHT22;7423;48.722;9.350;2023-07-16T11:42:49;26.10;96.80
14670;DHT22;7423;48.722;9.350;2023-07-16T11:45:23;26.10;96.00
14670;DHT22;7423;48.722;9.350;2023-07-16T11:47:53;26.30;96.20
14670;DHT22;7423;48.722;9.350;2023-07-16T11:50:21;26.30;95.00
14670;DHT22;7423;48.722;9.350;2023-07-16T11:52:56;26.40;95.30
14670;DHT22;7423;48.722;9.350;2023-07-16T11:55:25;26.50;95.30
14670;DHT22;7423;48.722;9.350;2023-07-16T11:57:52;26.60;95.30
14670;DHT22;7423;48.722;9.350;2023-07-16T12:00:19;26.70;95.10
14670;DHT22;7423;48.722;9.350;2023-07-16T12:02:46;26.70;95.00
14670;DHT22;7423;48.722;9.350;2023-07-16T12:05:19;26.70;94.00
14670;DHT22;7423;48.722;9.350;2023-07-16T12:07:56;26.80;95.40
14670;DHT22;7423;48.722;9.350;2023-07-16T12:10:23;26.90;94.30
14670;DHT22;7423;48.722;9.350;2023-07-16T12:12:50;26.90;93.90
14670;DHT22;7423;48.722;9.350;2023-07-16T12:15:17;26.80;94.30
14670;DHT22;7423;48.722;9.350;2023-07-16T12:17:43;26.80;94.80
14670;DHT22;7423;48.722;9.350;2023-07-16T12:20:11;26.80;94.60
14670;DHT22;7423;48.722;9.350;2023-07-16T12:22:37;26.90;93.90
14670;DHT22;7423;48.722;9.350;2023-07-16T12:25:05;26.90;94.10
14670;DHT22;7423;48.722;9.350;2023-07-16T12:27:32;26.90;93.40
14670;DHT22;7423;48.722;9.350;2023-07-16T12:29:59;26.90;93.70
14670;DHT22;7423;48.722;9.350;2023-07-16T12:32:26;26.90;94.60
14670;DHT22;7423;48.722;9.350;2023-07-16T12:34:53;26.80;95.00
14670;DHT22;7423;48.722;9.350;2023-07-16T12:37:21;26.90;94.80
14670;DHT22;7423;48.722;9.350;2023-07-16T12:39:48;26.90;95.00
14670;DHT22;7423;48.722;9.350;2023-07-16T12:42:15;26.80;94.80
14670;DHT22;7423;48.722;9.350;2023-07-16T12:44:41;26.80;95.10
14670;DHT22;7423;48.722;9.350;2023-07-16T12:47:09;26.90;95.50
14670;DHT22;7423;48.722;9.350;2023-07-16T12:49:36;27.00;95.30
14670;DHT22;7423;48.722;9.350;2023-07-16T12:52:03;27.00;93.90
14670;DHT22;7423;48.722;9.350;2023-07-16T12:54:30;27.20;93.10
14670;DHT22;7423;48.722;9.350;2023-07-16T12:56:57;27.30;93.60
14670;DHT22;7423;48.722;9.350;2023-07-16T12:59:24;27.30;93.20
14670;DHT22;7423;48.722;9.350;2023-07-16T13:01:51;27.40;93.20
14670;DHT22;7423;48.722;9.350;2023-07-16T13:04:18;27.40;92.40
14670;DHT22;7423;48.722;9.350;2023-07-16T13:06:45;27.40;92.70
14670;DHT22;7423;48.722;9.350;2023-07-16T13:09:16;27.30;92.90
14670;DHT22;7423;48.722;9.350;2023-07-16T13:11:43;27.50;92.80
14670;DHT22;7423;48.722;9.350;2023-07-16T13:14:10;27.50;93.30
14670;DHT22;7423;48.722;9.350;2023-07-16T13:16:37;27.50;93.30
14670;DHT22;7423;48.722;9.350;2023-07-16T13:19:04;27.50;92.50
14670;DHT22;7423;48.722;9.350;2023-07-16T13:21:31;27.50;91.70
14670;DHT22;7423;48.722;9.350;2023-07-16T13:23:58;27.50;91.40
14670;DHT22;7423;48.722;9.350;2023-07-16T13:26:25;27.60;90.60
14670;DHT22;7423;48.722;9.350;2023-07-16T13:28:52;27.60;90.90
14670;DHT22;7423;48.722;9.350;2023-07-16T13:31:19;27.50;91.20
14670;DHT22;7423;48.722;9.350;2023-07-16T13:33:45;27.50;91.00
14670;DHT22;7423;48.722;9.350;2023-07-16T13:36:12;27.60;91.20
14670;DHT22;7423;48.722;9.350;2023-07-16T13:38:40;27.70;91.50
14670;DHT22;7423;48.722;9.350;2023-07-16T13:41:06;27.80;91.00
14670;DHT22;7423;48.722;9.350;2023-07-16T13:43:33;27.80;90.60
14670;DHT22;7423;48.722;9.350;2023-07-16T13:46:00;27.70;90.40
14670;DHT22;7423;48.722;9.350;2023-07-16T13:48:27;27.70;90.90
14670;DHT22;7423;48.722;9.350;2023-07-16T13:51:03;27.80;91.00
14670;DHT22;7423;48.722;9.350;2023-07-16T13:53:29;27.80;91.00
14670;DHT22;7423;48.722;9.350;2023-07-16T13:55:56;27.80;91.10
14670;DHT22;7423;48.722;9.350;2023-07-16T13:58:24;27.90;90.90
14670;DHT22;7423;48.722;9.350;2023-07-16T14:00:51;28.00;90.50
14670;DHT22;7423;48.722;9.350;2023-07-16T14:03:18;28.00;90.70
14670;DHT22;7423;48.722;9.350;2023-07-16T14:05:45;28.00;90.80
14670;DHT22;7423;48.722;9.350;2023-07-16T14:08:11;28.00;90.80
14670;DHT22;7423;48.722;9.350;2023-07-16T14:10:38;28.00;91.20
14670;DHT22;7423;48.722;9.350;2023-07-16T14:13:05;28.10;90.50
14670;DHT22;7423;48.722;9.350;2023-07-16T14:15:32;28.10;90.10
14670;DHT22;7423;48.722;9.350;2023-07-16T14:17:59;28.10;90.10
14670;DHT22;7423;48.722;9.350;2023-07-16T14:20:26;28.30;88.80
14670;DHT22;7423;48.722;9.350;2023-07-16T14:22:53;28.30;88.20
14670;DHT22;7423;48.722;9.350;2023-07-16T14:25:20;28.40;88.90
14670;DHT22;7423;48.722;9.350;2023-07-16T14:27:47;28.30;88.60
14670;DHT22;7423;48.722;9.350;2023-07-16T14:30:15;28.30;87.40
14670;DHT22;7423;48.722;9.350;2023-07-16T14:32:42;28.30;89.80
14670;DHT22;7423;48.722;9.350;2023-07-16T14:35:10;28.30;89.10
14670;DHT22;7423;48.722;9.350;2023-07-16T14:37:56;28.30;87.50
14670;DHT22;7423;48.722;9.350;2023-07-16T14:40:22;28.30;86.80
14670;DHT22;7423;48.722;9.350;2023-07-16T14:42:49;28.50;87.70
14670;DHT22;7423;48.722;9.350;2023-07-16T14:45:16;28.40;86.90
14670;DHT22;7423;48.722;9.350;2023-07-16T14:47:44;28.30;87.40
14670;DHT22;7423;48.722;9.350;2023-07-16T14:50:11;28.20;87.30
14670;DHT22;7423;48.722;9.350;2023-07-16T14:52:38;28.10;87.70
14670;DHT22;7423;48.722;9.350;2023-07-16T14:55:06;28.20;88.70
14670;DHT22;7423;48.722;9.350;2023-07-16T14:57:34;28.10;89.00
14670;DHT22;7423;48.722;9.350;2023-07-16T15:00:03;28.10;88.30
14670;DHT22;7423;48.722;9.350;2023-07-16T15:02:31;28.00;88.70
14670;DHT22;7423;48.722;9.350;2023-07-16T15:04:58;27.90;88.40
14670;DHT22;7423;48.722;9.350;2023-07-16T15:07:25;27.80;87.80
14670;DHT22;7423;48.722;9.350;2023-07-16T15:09:52;27.80;88.30
14670;DHT22;7423;48.722;9.350;2023-07-16T15:12:19;27.70;88.10
14670;DHT22;7423;48.722;9.350;2023-07-16T15:14:46;27.90;88.60
14670;DHT22;7423;48.722;9.350;2023-07-16T15:17:13;27.90;87.60
14670;DHT22;7423;48.722;9.350;2023-07-16T15:19:40;28.00;87.70
14670;DHT22;7423;48.722;9.350;2023-07-16T15:22:07;28.00;87.70
14670;DHT22;7423;48.722;9.350;2023-07-16T15:24:36;27.90;87.80
14670;DHT22;7423;48.722;9.350;2023-07-16T15:27:03;27.80;88.20
14670;DHT22;7423;48.722;9.350;2023-07-16T15:29:30;27.70;89.00
14670;DHT22;7423;48.722;9.350;2023-07-16T15:31:57;27.80;88.80
14670;DHT22;7423;48.722;9.350;2023-07-16T15:34:28;27.80;89.60
14670;DHT22;7423;48.722;9.350;2023-07-16T15:36:55;27.70;89.50
14670;DHT22;7423;48.722;9.350;2023-07-16T15:39:22;27.70;89.90
14670;DHT22;7423;48.722;9.350;2023-07-16T15:41:49;27.70;89.10
14670;DHT22;7423;48.722;9.350;2023-07-16T15:44:16;27.70;88.80
14670;DHT22;7423;48.722;9.350;2023-07-16T15:46:43;27.70;89.30
14670;DHT22;7423;48.722;9.350;2023-07-16T15:49:10;27.60;89.70
14670;DHT22;7423;48.722;9.350;2023-07-16T15:51:38;27.60;90.00
14670;DHT22;7423;48.722;9.350;2023-07-16T15:54:08;27.50;89.30
14670;DHT22;7423;48.722;9.350;2023-07-16T15:56:34;27.60;89.80
14670;DHT22;7423;48.722;9.350;2023-07-16T15:59:02;27.60;89.60
14670;DHT22;7423;48.722;9.350;2023-07-16T16:01:29;27.60;88.50
14670;DHT22;7423;48.722;9.350;2023-07-16T16:03:56;27.70;88.30